Fillmore, Iowa
Current Conditions -  °F | °C
As of 1:55 PM on Thursday 27 Nov 2014 (Local Time) from KMXO Reporting Station
Clear Clear  
Wind Chill:   Ceiling: Unl
Heat Index: 18°   Visibility: 10mi
Dew Point:   Wind: 12mph
Humidity: 58%   Direction: 290°WNW
Pressure: 30.41"   Gusts: NA
Location:  42.2695°N, 91.0027°W
Report Text: KMXO 271955Z AUTO 29010KT 10SM CLR M08/M15 A3041 RMK AO2
Loading
Personal Weather Stations






























Interactive Weather Map New forecast layout! Learn more

10-Day Weather Forecast

Advertisements
Track Severe Weather on mobile